sensor_id;sensor_type;location;lat;lon;timestamp;P1;durP1;ratioP1;P2;durP2;ratioP2
18228;SDS011;9239;50.932;3.142;2023-03-26T00:01:36;14.27;;;5.00;;
18228;SDS011;9239;50.932;3.142;2023-03-26T00:04:06;13.60;;;4.20;;
18228;SDS011;9239;50.932;3.142;2023-03-26T00:06:34;12.83;;;4.30;;
18228;SDS011;9239;50.932;3.142;2023-03-26T00:09:03;10.73;;;5.17;;
18228;SDS011;9239;50.932;3.142;2023-03-26T00:11:31;12.87;;;5.20;;
18228;SDS011;9239;50.932;3.142;2023-03-26T00:13:59;19.57;;;5.13;;
18228;SDS011;9239;50.932;3.142;2023-03-26T00:16:27;16.10;;;4.63;;
18228;SDS011;9239;50.932;3.142;2023-03-26T00:18:56;16.60;;;5.10;;
18228;SDS011;9239;50.932;3.142;2023-03-26T00:21:25;19.20;;;4.87;;
18228;SDS011;9239;50.932;3.142;2023-03-26T00:23:54;17.37;;;5.00;;
18228;SDS011;9239;50.932;3.142;2023-03-26T00:26:23;10.73;;;4.43;;
18228;SDS011;9239;50.932;3.142;2023-03-26T00:28:50;14.23;;;4.47;;
18228;SDS011;9239;50.932;3.142;2023-03-26T00:31:18;16.23;;;5.70;;
18228;SDS011;9239;50.932;3.142;2023-03-26T00:33:45;15.00;;;5.23;;
18228;SDS011;9239;50.932;3.142;2023-03-26T00:36:13;23.00;;;5.67;;
18228;SDS011;9239;50.932;3.142;2023-03-26T00:38:43;14.27;;;4.63;;
18228;SDS011;9239;50.932;3.142;2023-03-26T00:41:11;16.60;;;5.37;;
18228;SDS011;9239;50.932;3.142;2023-03-26T00:43:46;18.57;;;4.93;;
18228;SDS011;9239;50.932;3.142;2023-03-26T00:46:14;22.33;;;4.83;;
18228;SDS011;9239;50.932;3.142;2023-03-26T00:48:42;17.20;;;6.30;;
18228;SDS011;9239;50.932;3.142;2023-03-26T00:51:10;17.73;;;5.07;;
18228;SDS011;9239;50.932;3.142;2023-03-26T00:53:39;12.73;;;4.43;;
18228;SDS011;9239;50.932;3.142;2023-03-26T00:56:08;13.80;;;4.50;;
18228;SDS011;9239;50.932;3.142;2023-03-26T00:58:35;18.40;;;5.53;;
18228;SDS011;9239;50.932;3.142;2023-03-26T01:01:03;19.80;;;6.20;;
18228;SDS011;9239;50.932;3.142;2023-03-26T01:03:33;17.13;;;4.97;;
18228;SDS011;9239;50.932;3.142;2023-03-26T01:06:02;20.20;;;5.37;;
18228;SDS011;9239;50.932;3.142;2023-03-26T01:08:32;17.27;;;5.07;;
18228;SDS011;9239;50.932;3.142;2023-03-26T01:11:03;15.30;;;5.03;;
18228;SDS011;9239;50.932;3.142;2023-03-26T01:13:40;15.23;;;5.13;;
18228;SDS011;9239;50.932;3.142;2023-03-26T01:16:13;14.77;;;5.47;;
18228;SDS011;9239;50.932;3.142;2023-03-26T01:18:47;15.00;;;5.40;;
18228;SDS011;9239;50.932;3.142;2023-03-26T01:21:18;15.33;;;4.83;;
18228;SDS011;9239;50.932;3.142;2023-03-26T01:23:56;16.90;;;6.37;;
18228;SDS011;9239;50.932;3.142;2023-03-26T01:26:32;10.47;;;4.57;;
18228;SDS011;9239;50.932;3.142;2023-03-26T01:29:20;14.10;;;4.93;;
18228;SDS011;9239;50.932;3.142;2023-03-26T01:31:56;15.30;;;5.10;;
18228;SDS011;9239;50.932;3.142;2023-03-26T01:34:35;11.37;;;4.90;;
18228;SDS011;9239;50.932;3.142;2023-03-26T01:37:15;15.63;;;5.07;;
18228;SDS011;9239;50.932;3.142;2023-03-26T01:39:51;16.73;;;4.93;;
18228;SDS011;9239;50.932;3.142;2023-03-26T01:42:24;15.37;;;5.43;;
18228;SDS011;9239;50.932;3.142;2023-03-26T01:44:58;13.23;;;5.20;;
18228;SDS011;9239;50.932;3.142;2023-03-26T01:47:29;15.13;;;5.27;;
18228;SDS011;9239;50.932;3.142;2023-03-26T01:49:57;15.00;;;5.23;;
18228;SDS011;9239;50.932;3.142;2023-03-26T01:52:24;18.03;;;5.23;;
18228;SDS011;9239;50.932;3.142;2023-03-26T01:54:53;10.23;;;5.77;;
18228;SDS011;9239;50.932;3.142;2023-03-26T01:57:23;17.30;;;5.43;;
18228;SDS011;9239;50.932;3.142;2023-03-26T02:00:03;15.50;;;5.03;;
18228;SDS011;9239;50.932;3.142;2023-03-26T02:02:38;13.83;;;5.23;;
18228;SDS011;9239;50.932;3.142;2023-03-26T02:05:11;18.27;;;5.03;;
18228;SDS011;9239;50.932;3.142;2023-03-26T02:07:43;15.33;;;4.93;;
18228;SDS011;9239;50.932;3.142;2023-03-26T02:10:18;13.87;;;5.00;;
18228;SDS011;9239;50.932;3.142;2023-03-26T02:12:49;17.23;;;4.60;;
18228;SDS011;9239;50.932;3.142;2023-03-26T02:15:16;15.37;;;4.90;;
18228;SDS011;9239;50.932;3.142;2023-03-26T02:17:43;10.60;;;4.30;;
18228;SDS011;9239;50.932;3.142;2023-03-26T02:20:11;16.67;;;4.47;;
18228;SDS011;9239;50.932;3.142;2023-03-26T02:22:39;14.23;;;4.97;;
18228;SDS011;9239;50.932;3.142;2023-03-26T02:25:10;11.50;;;4.57;;
18228;SDS011;9239;50.932;3.142;2023-03-26T02:27:40;13.77;;;4.23;;
18228;SDS011;9239;50.932;3.142;2023-03-26T02:30:08;10.97;;;4.70;;
18228;SDS011;9239;50.932;3.142;2023-03-26T02:32:38;14.33;;;4.10;;
18228;SDS011;9239;50.932;3.142;2023-03-26T02:35:05;12.10;;;3.83;;
18228;SDS011;9239;50.932;3.142;2023-03-26T02:37:32;12.43;;;4.13;;
18228;SDS011;9239;50.932;3.142;2023-03-26T02:39:59;13.13;;;4.20;;
18228;SDS011;9239;50.932;3.142;2023-03-26T02:42:26;14.53;;;3.97;;
18228;SDS011;9239;50.932;3.142;2023-03-26T02:44:54;10.10;;;3.50;;
18228;SDS011;9239;50.932;3.142;2023-03-26T02:47:21;12.13;;;3.37;;
18228;SDS011;9239;50.932;3.142;2023-03-26T02:49:48;11.07;;;4.10;;
18228;SDS011;9239;50.932;3.142;2023-03-26T02:52:14;11.20;;;3.60;;
18228;SDS011;9239;50.932;3.142;2023-03-26T02:54:42;11.87;;;3.70;;
18228;SDS011;9239;50.932;3.142;2023-03-26T02:57:09;10.40;;;4.00;;
18228;SDS011;9239;50.932;3.142;2023-03-26T02:59:36;5.70;;;3.17;;
18228;SDS011;9239;50.932;3.142;2023-03-26T03:02:04;10.50;;;3.60;;
18228;SDS011;9239;50.932;3.142;2023-03-26T03:04:31;10.03;;;4.30;;
18228;SDS011;9239;50.932;3.142;2023-03-26T03:06:58;14.70;;;3.97;;
18228;SDS011;9239;50.932;3.142;2023-03-26T03:09:25;14.37;;;5.10;;
18228;SDS011;9239;50.932;3.142;2023-03-26T03:11:52;12.47;;;4.50;;
18228;SDS011;9239;50.932;3.142;2023-03-26T03:14:19;12.53;;;4.03;;
18228;SDS011;9239;50.932;3.142;2023-03-26T03:16:46;12.67;;;4.80;;
18228;SDS011;9239;50.932;3.142;2023-03-26T03:19:14;8.03;;;3.67;;
18228;SDS011;9239;50.932;3.142;2023-03-26T03:21:41;8.90;;;3.33;;
18228;SDS011;9239;50.932;3.142;2023-03-26T03:24:08;10.73;;;3.53;;
18228;SDS011;9239;50.932;3.142;2023-03-26T03:26:37;7.73;;;3.30;;
18228;SDS011;9239;50.932;3.142;2023-03-26T03:29:06;12.20;;;3.67;;
18228;SDS011;9239;50.932;3.142;2023-03-26T03:31:34;10.43;;;4.30;;
18228;SDS011;9239;50.932;3.142;2023-03-26T03:34:01;11.10;;;3.50;;
18228;SDS011;9239;50.932;3.142;2023-03-26T03:36:29;7.30;;;3.40;;
18228;SDS011;9239;50.932;3.142;2023-03-26T03:38:57;8.97;;;3.60;;
18228;SDS011;9239;50.932;3.142;2023-03-26T03:41:26;11.93;;;4.53;;
18228;SDS011;9239;50.932;3.142;2023-03-26T03:43:53;13.30;;;3.67;;
18228;SDS011;9239;50.932;3.142;2023-03-26T03:46:20;9.90;;;4.10;;
18228;SDS011;9239;50.932;3.142;2023-03-26T03:48:47;11.90;;;3.97;;
18228;SDS011;9239;50.932;3.142;2023-03-26T03:51:14;7.37;;;3.20;;
18228;SDS011;9239;50.932;3.142;2023-03-26T03:53:43;13.87;;;4.50;;
18228;SDS011;9239;50.932;3.142;2023-03-26T03:56:11;14.00;;;4.10;;
18228;SDS011;9239;50.932;3.142;2023-03-26T03:58:38;8.83;;;3.40;;
18228;SDS011;9239;50.932;3.142;2023-03-26T04:01:06;10.77;;;3.63;;
18228;SDS011;9239;50.932;3.142;2023-03-26T04:03:33;10.50;;;3.30;;
18228;SDS011;9239;50.932;3.142;2023-03-26T04:06:02;13.20;;;4.37;;
18228;SDS011;9239;50.932;3.142;2023-03-26T04:08:31;10.77;;;4.60;;
18228;SDS011;9239;50.932;3.142;2023-03-26T04:10:59;12.30;;;4.27;;
18228;SDS011;9239;50.932;3.142;2023-03-26T04:13:26;8.00;;;3.63;;
18228;SDS011;9239;50.932;3.142;2023-03-26T04:15:54;11.87;;;4.80;;
18228;SDS011;9239;50.932;3.142;2023-03-26T04:18:21;12.20;;;4.50;;
18228;SDS011;9239;50.932;3.142;2023-03-26T04:20:48;12.97;;;4.10;;
18228;SDS011;9239;50.932;3.142;2023-03-26T04:23:15;17.10;;;4.93;;
18228;SDS011;9239;50.932;3.142;2023-03-26T04:25:43;8.60;;;3.77;;
18228;SDS011;9239;50.932;3.142;2023-03-26T04:28:24;13.83;;;4.20;;
18228;SDS011;9239;50.932;3.142;2023-03-26T04:30:54;12.57;;;3.97;;
18228;SDS011;9239;50.932;3.142;2023-03-26T04:33:24;15.80;;;4.20;;
18228;SDS011;9239;50.932;3.142;2023-03-26T04:35:52;10.73;;;4.50;;
18228;SDS011;9239;50.932;3.142;2023-03-26T04:38:20;12.67;;;4.67;;
18228;SDS011;9239;50.932;3.142;2023-03-26T04:40:47;9.37;;;3.90;;
18228;SDS011;9239;50.932;3.142;2023-03-26T04:43:16;10.67;;;3.90;;
18228;SDS011;9239;50.932;3.142;2023-03-26T04:45:43;15.53;;;4.27;;
18228;SDS011;9239;50.932;3.142;2023-03-26T04:48:11;9.87;;;4.10;;
18228;SDS011;9239;50.932;3.142;2023-03-26T04:50:39;12.70;;;3.90;;
18228;SDS011;9239;50.932;3.142;2023-03-26T04:53:08;8.97;;;3.53;;
18228;SDS011;9239;50.932;3.142;2023-03-26T04:55:38;9.30;;;3.97;;
18228;SDS011;9239;50.932;3.142;2023-03-26T04:58:10;9.33;;;4.07;;
18228;SDS011;9239;50.932;3.142;2023-03-26T05:00:39;11.70;;;3.70;;
18228;SDS011;9239;50.932;3.142;2023-03-26T05:03:08;10.03;;;3.90;;
18228;SDS011;9239;50.932;3.142;2023-03-26T05:05:36;7.67;;;3.40;;
18228;SDS011;9239;50.932;3.142;2023-03-26T05:08:04;13.83;;;4.40;;
18228;SDS011;9239;50.932;3.142;2023-03-26T05:10:32;8.73;;;3.43;;
18228;SDS011;9239;50.932;3.142;2023-03-26T05:12:59;7.87;;;3.90;;
18228;SDS011;9239;50.932;3.142;2023-03-26T05:15:25;10.90;;;3.50;;
18228;SDS011;9239;50.932;3.142;2023-03-26T05:17:54;8.87;;;3.37;;
18228;SDS011;9239;50.932;3.142;2023-03-26T05:20:21;9.00;;;4.10;;
18228;SDS011;9239;50.932;3.142;2023-03-26T05:22:50;7.60;;;3.00;;
18228;SDS011;9239;50.932;3.142;2023-03-26T05:25:17;5.67;;;2.50;;
18228;SDS011;9239;50.932;3.142;2023-03-26T05:27:45;5.83;;;3.07;;
18228;SDS011;9239;50.932;3.142;2023-03-26T05:30:13;5.37;;;2.13;;
18228;SDS011;9239;50.932;3.142;2023-03-26T05:32:42;4.77;;;1.70;;
18228;SDS011;9239;50.932;3.142;2023-03-26T05:35:11;5.57;;;1.90;;
18228;SDS011;9239;50.932;3.142;2023-03-26T05:37:41;2.53;;;1.97;;
18228;SDS011;9239;50.932;3.142;2023-03-26T05:40:09;5.97;;;1.80;;
18228;SDS011;9239;50.932;3.142;2023-03-26T05:42:38;5.93;;;2.40;;
18228;SDS011;9239;50.932;3.142;2023-03-26T05:45:06;3.33;;;2.17;;
18228;SDS011;9239;50.932;3.142;2023-03-26T05:47:33;4.93;;;2.20;;
18228;SDS011;9239;50.932;3.142;2023-03-26T05:50:00;7.63;;;2.43;;
18228;SDS011;9239;50.932;3.142;2023-03-26T05:52:29;7.20;;;3.23;;
18228;SDS011;9239;50.932;3.142;2023-03-26T05:54:57;5.57;;;2.33;;
18228;SDS011;9239;50.932;3.142;2023-03-26T05:57:23;6.13;;;2.13;;
18228;SDS011;9239;50.932;3.142;2023-03-26T05:59:52;5.60;;;2.73;;
18228;SDS011;9239;50.932;3.142;2023-03-26T06:02:19;3.30;;;1.90;;
18228;SDS011;9239;50.932;3.142;2023-03-26T06:04:46;4.50;;;2.00;;
18228;SDS011;9239;50.932;3.142;2023-03-26T06:07:14;5.27;;;3.03;;
18228;SDS011;9239;50.932;3.142;2023-03-26T06:09:43;3.57;;;2.60;;
18228;SDS011;9239;50.932;3.142;2023-03-26T06:12:10;6.87;;;2.17;;
18228;SDS011;9239;50.932;3.142;2023-03-26T06:14:38;3.43;;;1.57;;
18228;SDS011;9239;50.932;3.142;2023-03-26T06:17:06;2.97;;;1.50;;
18228;SDS011;9239;50.932;3.142;2023-03-26T06:19:34;5.00;;;1.80;;
18228;SDS011;9239;50.932;3.142;2023-03-26T06:22:01;3.83;;;2.07;;
18228;SDS011;9239;50.932;3.142;2023-03-26T06:24:28;4.93;;;1.50;;
18228;SDS011;9239;50.932;3.142;2023-03-26T06:26:56;2.27;;;1.60;;
18228;SDS011;9239;50.932;3.142;2023-03-26T06:29:23;4.03;;;1.50;;
18228;SDS011;9239;50.932;3.142;2023-03-26T06:31:51;4.00;;;1.33;;
18228;SDS011;9239;50.932;3.142;2023-03-26T06:34:17;5.57;;;2.00;;
18228;SDS011;9239;50.932;3.142;2023-03-26T06:36:44;3.17;;;1.67;;
18228;SDS011;9239;50.932;3.142;2023-03-26T06:39:12;2.53;;;1.20;;
18228;SDS011;9239;50.932;3.142;2023-03-26T06:41:39;2.07;;;1.50;;
18228;SDS011;9239;50.932;3.142;2023-03-26T06:44:07;4.10;;;1.00;;
18228;SDS011;9239;50.932;3.142;2023-03-26T06:46:35;1.87;;;1.00;;
18228;SDS011;9239;50.932;3.142;2023-03-26T06:49:02;2.23;;;1.00;;
18228;SDS011;9239;50.932;3.142;2023-03-26T06:51:29;1.97;;;1.23;;
18228;SDS011;9239;50.932;3.142;2023-03-26T06:53:55;1.83;;;1.20;;
18228;SDS011;9239;50.932;3.142;2023-03-26T06:56:22;7.30;;;1.73;;
18228;SDS011;9239;50.932;3.142;2023-03-26T06:58:49;4.00;;;1.57;;
18228;SDS011;9239;50.932;3.142;2023-03-26T07:01:17;2.10;;;1.53;;
18228;SDS011;9239;50.932;3.142;2023-03-26T07:03:44;2.43;;;1.73;;
18228;SDS011;9239;50.932;3.142;2023-03-26T07:06:11;4.97;;;3.10;;
18228;SDS011;9239;50.932;3.142;2023-03-26T07:08:38;3.37;;;2.40;;
18228;SDS011;9239;50.932;3.142;2023-03-26T07:11:05;1.50;;;1.40;;
18228;SDS011;9239;50.932;3.142;2023-03-26T07:13:32;1.43;;;1.07;;
18228;SDS011;9239;50.932;3.142;2023-03-26T07:15:59;3.13;;;1.33;;
18228;SDS011;9239;50.932;3.142;2023-03-26T07:18:27;2.30;;;1.97;;
18228;SDS011;9239;50.932;3.142;2023-03-26T07:20:55;3.17;;;2.40;;
18228;SDS011;9239;50.932;3.142;2023-03-26T07:23:22;4.63;;;2.47;;
18228;SDS011;9239;50.932;3.142;2023-03-26T07:25:49;4.63;;;2.33;;
18228;SDS011;9239;50.932;3.142;2023-03-26T07:28:19;3.63;;;2.73;;
18228;SDS011;9239;50.932;3.142;2023-03-26T07:30:53;4.60;;;3.03;;
18228;SDS011;9239;50.932;3.142;2023-03-26T07:33:26;7.47;;;4.07;;
18228;SDS011;9239;50.932;3.142;2023-03-26T07:36:03;5.37;;;2.67;;
18228;SDS011;9239;50.932;3.142;2023-03-26T07:38:44;4.73;;;2.77;;
18228;SDS011;9239;50.932;3.142;2023-03-26T07:41:21;4.77;;;3.00;;
18228;SDS011;9239;50.932;3.142;2023-03-26T07:43:56;3.33;;;2.97;;
18228;SDS011;9239;50.932;3.142;2023-03-26T07:46:31;4.77;;;2.83;;
18228;SDS011;9239;50.932;3.142;2023-03-26T07:49:02;3.43;;;2.00;;
18228;SDS011;9239;50.932;3.142;2023-03-26T07:51:30;3.63;;;1.90;;
18228;SDS011;9239;50.932;3.142;2023-03-26T07:53:58;3.57;;;1.90;;
18228;SDS011;9239;50.932;3.142;2023-03-26T07:56:29;5.10;;;2.17;;
18228;SDS011;9239;50.932;3.142;2023-03-26T07:59:02;4.50;;;2.70;;
18228;SDS011;9239;50.932;3.142;2023-03-26T08:01:39;3.93;;;1.63;;
18228;SDS011;9239;50.932;3.142;2023-03-26T08:07:17;2.77;;;1.80;;
18228;SDS011;9239;50.932;3.142;2023-03-26T08:09:57;4.27;;;1.63;;
18228;SDS011;9239;50.932;3.142;2023-03-26T08:12:30;4.33;;;1.63;;
18228;SDS011;9239;50.932;3.142;2023-03-26T08:15:09;2.83;;;1.40;;
18228;SDS011;9239;50.932;3.142;2023-03-26T08:17:46;3.00;;;1.50;;
18228;SDS011;9239;50.932;3.142;2023-03-26T08:20:21;2.20;;;1.30;;
18228;SDS011;9239;50.932;3.142;2023-03-26T08:22:58;1.73;;;1.57;;
18228;SDS011;9239;50.932;3.142;2023-03-26T08:25:30;3.47;;;2.13;;
18228;SDS011;9239;50.932;3.142;2023-03-26T08:28:05;1.87;;;1.60;;
18228;SDS011;9239;50.932;3.142;2023-03-26T08:30:41;2.80;;;1.77;;
18228;SDS011;9239;50.932;3.142;2023-03-26T08:33:12;3.47;;;1.80;;
18228;SDS011;9239;50.932;3.142;2023-03-26T08:35:43;2.50;;;1.50;;
18228;SDS011;9239;50.932;3.142;2023-03-26T08:38:11;4.73;;;1.83;;
18228;SDS011;9239;50.932;3.142;2023-03-26T08:40:50;2.80;;;2.23;;
18228;SDS011;9239;50.932;3.142;2023-03-26T08:43:42;3.90;;;1.20;;
18228;SDS011;9239;50.932;3.142;2023-03-26T08:46:44;3.77;;;1.73;;
18228;SDS011;9239;50.932;3.142;2023-03-26T08:49:35;3.63;;;1.70;;
18228;SDS011;9239;50.932;3.142;2023-03-26T08:52:35;4.30;;;2.50;;
18228;SDS011;9239;50.932;3.142;2023-03-26T09:01:08;5.73;;;3.20;;
18228;SDS011;9239;50.932;3.142;2023-03-26T09:04:04;3.93;;;1.33;;
18228;SDS011;9239;50.932;3.142;2023-03-26T09:06:58;1.90;;;1.40;;
18228;SDS011;9239;50.932;3.142;2023-03-26T09:09:44;2.67;;;1.43;;
18228;SDS011;9239;50.932;3.142;2023-03-26T09:34:40;2.57;;;1.90;;
18228;SDS011;9239;50.932;3.142;2023-03-26T09:37:31;3.70;;;1.67;;
18228;SDS011;9239;50.932;3.142;2023-03-26T09:40:13;4.17;;;1.40;;
18228;SDS011;9239;50.932;3.142;2023-03-26T09:42:43;4.27;;;1.97;;
18228;SDS011;9239;50.932;3.142;2023-03-26T09:45:28;3.03;;;2.00;;
18228;SDS011;9239;50.932;3.142;2023-03-26T09:48:16;5.53;;;2.60;;
18228;SDS011;9239;50.932;3.142;2023-03-26T09:51:16;2.43;;;1.80;;
18228;SDS011;9239;50.932;3.142;2023-03-26T09:54:00;2.33;;;2.13;;
18228;SDS011;9239;50.932;3.142;2023-03-26T09:56:41;3.53;;;1.77;;
18228;SDS011;9239;50.932;3.142;2023-03-26T10:02:20;2.07;;;1.43;;
18228;SDS011;9239;50.932;3.142;2023-03-26T10:08:17;4.17;;;2.27;;
18228;SDS011;9239;50.932;3.142;2023-03-26T10:11:00;2.37;;;2.03;;
18228;SDS011;9239;50.932;3.142;2023-03-26T10:13:36;2.47;;;2.27;;
18228;SDS011;9239;50.932;3.142;2023-03-26T10:16:14;3.10;;;2.60;;
18228;SDS011;9239;50.932;3.142;2023-03-26T10:18:54;2.73;;;2.03;;
18228;SDS011;9239;50.932;3.142;2023-03-26T10:21:33;3.57;;;2.47;;
18228;SDS011;9239;50.932;3.142;2023-03-26T10:24:12;3.80;;;2.67;;
18228;SDS011;9239;50.932;3.142;2023-03-26T10:26:50;3.70;;;2.30;;
18228;SDS011;9239;50.932;3.142;2023-03-26T10:29:30;3.33;;;2.40;;
18228;SDS011;9239;50.932;3.142;2023-03-26T10:32:18;3.70;;;2.40;;
18228;SDS011;9239;50.932;3.142;2023-03-26T10:34:57;6.20;;;3.00;;
18228;SDS011;9239;50.932;3.142;2023-03-26T10:37:40;3.97;;;2.47;;
18228;SDS011;9239;50.932;3.142;2023-03-26T10:40:18;4.07;;;2.53;;
18228;SDS011;9239;50.932;3.142;2023-03-26T10:42:58;3.77;;;2.47;;
18228;SDS011;9239;50.932;3.142;2023-03-26T10:45:40;3.40;;;2.90;;
18228;SDS011;9239;50.932;3.142;2023-03-26T10:48:31;3.50;;;2.83;;
18228;SDS011;9239;50.932;3.142;2023-03-26T10:51:18;3.33;;;2.50;;
18228;SDS011;9239;50.932;3.142;2023-03-26T10:54:07;3.80;;;3.10;;
18228;SDS011;9239;50.932;3.142;2023-03-26T10:56:40;3.30;;;2.97;;
18228;SDS011;9239;50.932;3.142;2023-03-26T10:59:11;3.97;;;3.13;;
18228;SDS011;9239;50.932;3.142;2023-03-26T11:01:40;3.07;;;2.80;;
18228;SDS011;9239;50.932;3.142;2023-03-26T11:04:18;3.73;;;2.87;;
18228;SDS011;9239;50.932;3.142;2023-03-26T11:06:55;3.97;;;3.00;;
18228;SDS011;9239;50.932;3.142;2023-03-26T11:09:31;4.20;;;3.70;;
18228;SDS011;9239;50.932;3.142;2023-03-26T11:12:04;3.30;;;3.00;;
18228;SDS011;9239;50.932;3.142;2023-03-26T11:14:38;4.70;;;2.77;;
18228;SDS011;9239;50.932;3.142;2023-03-26T11:17:13;3.40;;;2.37;;
18228;SDS011;9239;50.932;3.142;2023-03-26T11:19:46;4.87;;;2.90;;
18228;SDS011;9239;50.932;3.142;2023-03-26T11:22:22;4.33;;;2.97;;
18228;SDS011;9239;50.932;3.142;2023-03-26T11:25:05;3.37;;;3.07;;
18228;SDS011;9239;50.932;3.142;2023-03-26T11:27:48;3.20;;;2.40;;
18228;SDS011;9239;50.932;3.142;2023-03-26T11:30:26;4.90;;;3.43;;
18228;SDS011;9239;50.932;3.142;2023-03-26T11:33:02;4.47;;;2.70;;
18228;SDS011;9239;50.932;3.142;2023-03-26T11:35:32;3.67;;;2.73;;
18228;SDS011;9239;50.932;3.142;2023-03-26T11:38:04;2.93;;;2.50;;
18228;SDS011;9239;50.932;3.142;2023-03-26T11:40:37;2.27;;;2.03;;
18228;SDS011;9239;50.932;3.142;2023-03-26T11:43:07;3.23;;;2.10;;
18228;SDS011;9239;50.932;3.142;2023-03-26T11:45:38;2.20;;;2.00;;
18228;SDS011;9239;50.932;3.142;2023-03-26T11:48:08;3.53;;;2.20;;
18228;SDS011;9239;50.932;3.142;2023-03-26T11:50:40;3.60;;;1.93;;
18228;SDS011;9239;50.932;3.142;2023-03-26T11:53:12;2.60;;;2.40;;
18228;SDS011;9239;50.932;3.142;2023-03-26T11:55:43;2.43;;;1.90;;
18228;SDS011;9239;50.932;3.142;2023-03-26T11:58:24;2.40;;;2.20;;
18228;SDS011;9239;50.932;3.142;2023-03-26T12:00:55;5.33;;;1.60;;
18228;SDS011;9239;50.932;3.142;2023-03-26T12:03:23;2.10;;;1.40;;
18228;SDS011;9239;50.932;3.142;2023-03-26T12:05:50;1.30;;;1.20;;
18228;SDS011;9239;50.932;3.142;2023-03-26T12:08:27;0.80;;;0.80;;
18228;SDS011;9239;50.932;3.142;2023-03-26T12:10:58;0.80;;;0.80;;
18228;SDS011;9239;50.932;3.142;2023-03-26T12:13:33;1.27;;;0.80;;
18228;SDS011;9239;50.932;3.142;2023-03-26T12:16:12;0.77;;;0.73;;
18228;SDS011;9239;50.932;3.142;2023-03-26T12:18:40;0.90;;;0.90;;
18228;SDS011;9239;50.932;3.142;2023-03-26T12:21:09;1.43;;;1.03;;
18228;SDS011;9239;50.932;3.142;2023-03-26T12:23:43;1.33;;;1.10;;
18228;SDS011;9239;50.932;3.142;2023-03-26T12:26:17;1.50;;;1.40;;
18228;SDS011;9239;50.932;3.142;2023-03-26T12:28:46;3.70;;;1.47;;
18228;SDS011;9239;50.932;3.142;2023-03-26T12:31:15;1.80;;;1.70;;
18228;SDS011;9239;50.932;3.142;2023-03-26T12:33:44;2.90;;;2.60;;
18228;SDS011;9239;50.932;3.142;2023-03-26T12:36:30;3.70;;;3.40;;
18228;SDS011;9239;50.932;3.142;2023-03-26T12:38:59;3.90;;;3.60;;
18228;SDS011;9239;50.932;3.142;2023-03-26T12:41:32;4.23;;;3.93;;
18228;SDS011;9239;50.932;3.142;2023-03-26T12:44:13;4.80;;;4.00;;
18228;SDS011;9239;50.932;3.142;2023-03-26T12:46:47;4.30;;;4.00;;
18228;SDS011;9239;50.932;3.142;2023-03-26T12:49:18;4.63;;;3.77;;
18228;SDS011;9239;50.932;3.142;2023-03-26T12:51:47;3.57;;;2.83;;
18228;SDS011;9239;50.932;3.142;2023-03-26T12:57:16;3.23;;;2.50;;
18228;SDS011;9239;50.932;3.142;2023-03-26T13:05:53;3.93;;;2.97;;
18228;SDS011;9239;50.932;3.142;2023-03-26T13:08:47;6.40;;;3.67;;
18228;SDS011;9239;50.932;3.142;2023-03-26T13:11:30;4.00;;;3.60;;
18228;SDS011;9239;50.932;3.142;2023-03-26T13:14:17;7.93;;;4.00;;
18228;SDS011;9239;50.932;3.142;2023-03-26T13:16:58;4.73;;;3.87;;
18228;SDS011;9239;50.932;3.142;2023-03-26T13:19:31;4.20;;;3.50;;
18228;SDS011;9239;50.932;3.142;2023-03-26T13:22:07;3.80;;;3.50;;
18228;SDS011;9239;50.932;3.142;2023-03-26T13:24:45;3.90;;;3.50;;
18228;SDS011;9239;50.932;3.142;2023-03-26T13:27:27;4.27;;;3.87;;
18228;SDS011;9239;50.932;3.142;2023-03-26T13:30:03;3.73;;;3.27;;
18228;SDS011;9239;50.932;3.142;2023-03-26T13:32:42;6.00;;;4.30;;
18228;SDS011;9239;50.932;3.142;2023-03-26T13:35:25;4.17;;;3.67;;
18228;SDS011;9239;50.932;3.142;2023-03-26T13:37:58;6.60;;;4.20;;
18228;SDS011;9239;50.932;3.142;2023-03-26T13:40:32;5.03;;;4.20;;
18228;SDS011;9239;50.932;3.142;2023-03-26T13:43:16;5.53;;;4.40;;
18228;SDS011;9239;50.932;3.142;2023-03-26T13:45:51;4.00;;;3.70;;
18228;SDS011;9239;50.932;3.142;2023-03-26T13:48:22;6.83;;;3.67;;
18228;SDS011;9239;50.932;3.142;2023-03-26T13:50:54;4.00;;;3.70;;
18228;SDS011;9239;50.932;3.142;2023-03-26T13:53:26;5.27;;;3.67;;
18228;SDS011;9239;50.932;3.142;2023-03-26T13:55:59;5.13;;;3.50;;
18228;SDS011;9239;50.932;3.142;2023-03-26T13:58:30;4.73;;;4.10;;
18228;SDS011;9239;50.932;3.142;2023-03-26T14:01:02;6.23;;;4.27;;
18228;SDS011;9239;50.932;3.142;2023-03-26T14:03:35;4.57;;;3.57;;
18228;SDS011;9239;50.932;3.142;2023-03-26T14:06:10;5.73;;;4.20;;
18228;SDS011;9239;50.932;3.142;2023-03-26T14:08:42;5.23;;;3.20;;
18228;SDS011;9239;50.932;3.142;2023-03-26T14:11:14;5.57;;;4.07;;
18228;SDS011;9239;50.932;3.142;2023-03-26T14:13:46;5.90;;;3.67;;
18228;SDS011;9239;50.932;3.142;2023-03-26T14:16:19;5.10;;;4.70;;
18228;SDS011;9239;50.932;3.142;2023-03-26T14:18:53;3.97;;;3.40;;
18228;SDS011;9239;50.932;3.142;2023-03-26T14:21:36;3.53;;;3.23;;
18228;SDS011;9239;50.932;3.142;2023-03-26T14:24:23;3.57;;;3.27;;
18228;SDS011;9239;50.932;3.142;2023-03-26T14:27:15;5.47;;;3.33;;
18228;SDS011;9239;50.932;3.142;2023-03-26T14:30:05;5.23;;;3.27;;
18228;SDS011;9239;50.932;3.142;2023-03-26T14:33:04;3.87;;;3.53;;
18228;SDS011;9239;50.932;3.142;2023-03-26T14:35:47;6.10;;;4.13;;
18228;SDS011;9239;50.932;3.142;2023-03-26T14:41:23;5.70;;;4.17;;
18228;SDS011;9239;50.932;3.142;2023-03-26T14:43:58;4.53;;;4.10;;
18228;SDS011;9239;50.932;3.142;2023-03-26T14:46:47;5.87;;;4.00;;
18228;SDS011;9239;50.932;3.142;2023-03-26T14:49:39;7.37;;;4.30;;
18228;SDS011;9239;50.932;3.142;2023-03-26T14:52:37;8.93;;;4.77;;
18228;SDS011;9239;50.932;3.142;2023-03-26T14:55:12;15.23;;;7.43;;
18228;SDS011;9239;50.932;3.142;2023-03-26T15:07:20;15.87;;;6.57;;
18228;SDS011;9239;50.932;3.142;2023-03-26T15:10:24;14.73;;;6.67;;
18228;SDS011;9239;50.932;3.142;2023-03-26T15:13:30;15.07;;;6.27;;
18228;SDS011;9239;50.932;3.142;2023-03-26T15:16:11;17.30;;;7.93;;
18228;SDS011;9239;50.932;3.142;2023-03-26T15:25:32;15.40;;;4.80;;
18228;SDS011;9239;50.932;3.142;2023-03-26T15:28:41;11.80;;;4.37;;
18228;SDS011;9239;50.932;3.142;2023-03-26T15:37:40;16.70;;;4.83;;
18228;SDS011;9239;50.932;3.142;2023-03-26T15:40:31;15.10;;;4.40;;
18228;SDS011;9239;50.932;3.142;2023-03-26T15:43:14;13.63;;;4.00;;
18228;SDS011;9239;50.932;3.142;2023-03-26T15:45:44;15.17;;;6.00;;
18228;SDS011;9239;50.932;3.142;2023-03-26T15:48:35;13.30;;;4.60;;
18228;SDS011;9239;50.932;3.142;2023-03-26T15:51:44;17.13;;;5.00;;
18228;SDS011;9239;50.932;3.142;2023-03-26T15:54:27;10.60;;;4.10;;
18228;SDS011;9239;50.932;3.142;2023-03-26T15:57:01;13.93;;;3.80;;
18228;SDS011;9239;50.932;3.142;2023-03-26T15:59:41;9.63;;;3.27;;
18228;SDS011;9239;50.932;3.142;2023-03-26T16:02:21;12.07;;;3.67;;
18228;SDS011;9239;50.932;3.142;2023-03-26T16:04:55;14.73;;;3.90;;
18228;SDS011;9239;50.932;3.142;2023-03-26T16:07:34;13.17;;;3.17;;
18228;SDS011;9239;50.932;3.142;2023-03-26T16:10:26;13.90;;;3.67;;
18228;SDS011;9239;50.932;3.142;2023-03-26T16:16:11;14.60;;;3.63;;
18228;SDS011;9239;50.932;3.142;2023-03-26T16:18:45;10.33;;;3.37;;
18228;SDS011;9239;50.932;3.142;2023-03-26T16:24:23;11.47;;;3.33;;
18228;SDS011;9239;50.932;3.142;2023-03-26T16:27:03;6.53;;;3.00;;
18228;SDS011;9239;50.932;3.142;2023-03-26T16:29:35;14.47;;;4.00;;
18228;SDS011;9239;50.932;3.142;2023-03-26T16:32:34;11.97;;;3.60;;
18228;SDS011;9239;50.932;3.142;2023-03-26T16:35:21;8.33;;;3.90;;
18228;SDS011;9239;50.932;3.142;2023-03-26T16:38:02;9.60;;;3.90;;
18228;SDS011;9239;50.932;3.142;2023-03-26T16:40:33;11.13;;;3.80;;
18228;SDS011;9239;50.932;3.142;2023-03-26T16:43:04;13.43;;;3.70;;
18228;SDS011;9239;50.932;3.142;2023-03-26T16:45:38;13.20;;;3.67;;
18228;SDS011;9239;50.932;3.142;2023-03-26T16:48:15;8.93;;;4.07;;
18228;SDS011;9239;50.932;3.142;2023-03-26T16:50:49;8.47;;;3.40;;
18228;SDS011;9239;50.932;3.142;2023-03-26T16:53:26;11.00;;;2.90;;